createdAt,value
2023-04-28T00:05:00.142Z,8.9
2023-04-28T00:15:00.361Z,8.9
2023-04-28T00:55:03.012Z,8.6
2023-04-28T01:15:03.986Z,8.6
2023-04-28T01:25:04.903Z,8.6
2023-04-28T01:35:05.167Z,8.6
2023-04-28T01:45:05.656Z,8.6
2023-04-28T02:05:07.133Z,8.5
2023-04-28T02:15:07.977Z,8.5
2023-04-28T02:25:08.825Z,8.5
2023-04-28T02:45:09.683Z,8.4
2023-04-28T02:55:10.474Z,8
2023-04-28T03:05:11.300Z,7.7
2023-04-28T03:15:13.426Z,7.2
2023-04-28T03:25:13.066Z,7.1
2023-04-28T03:35:13.858Z,7.1
2023-04-28T03:45:14.102Z,7
2023-04-28T03:55:15.187Z,7.1
2023-04-28T04:05:15.883Z,7.1
2023-04-28T04:15:16.902Z,7
2023-04-28T04:25:17.763Z,6.9
2023-04-28T04:35:18.552Z,6.9
2023-04-28T04:45:19.302Z,6.9
2023-04-28T04:55:19.532Z,7.1
2023-04-28T05:25:21.097Z,7.3
2023-04-28T05:35:21.322Z,7.5
2023-04-28T05:45:21.539Z,7.6
2023-04-28T05:55:22.375Z,7.6
2023-04-28T06:15:23.706Z,7.9
2023-04-28T06:25:24.121Z,8
2023-04-28T06:35:24.473Z,8.1
2023-04-28T06:55:25.548Z,8.3
2023-04-28T07:05:26.425Z,8.4
2023-04-28T07:15:27.697Z,8.6
2023-04-28T07:25:28.346Z,8.8
2023-04-28T07:35:28.421Z,8.9
2023-04-28T07:45:29.514Z,9.1
2023-04-28T08:05:30.892Z,9.9
2023-04-28T08:15:31.682Z,10.2
2023-04-28T08:35:33.255Z,10.9
2023-04-28T08:45:33.852Z,11.5
2023-04-28T08:55:34.829Z,13
2023-04-28T09:05:36.015Z,13
2023-04-28T09:15:36.313Z,13.4
2023-04-28T09:35:36.911Z,14
2023-04-28T09:45:37.403Z,14.4
2023-04-28T09:55:38.288Z,14.3
2023-04-28T10:05:39.279Z,14.6
2023-04-28T10:15:39.611Z,15.2
2023-04-28T10:25:40.193Z,15.5
2023-04-28T10:35:40.455Z,15.2
2023-04-28T10:45:41.070Z,15
2023-04-28T10:55:41.135Z,15
2023-04-28T11:05:41.670Z,15.2
2023-04-28T11:15:42.465Z,15
2023-04-28T11:25:42.625Z,14.8
2023-04-28T11:35:43.147Z,14.5
2023-04-28T11:45:43.752Z,14.3
2023-04-28T12:05:44.968Z,14
2023-04-28T12:15:45.799Z,13.9
2023-04-28T12:25:46.114Z,13.9
2023-04-28T12:35:47.092Z,14
2023-04-28T12:45:47.173Z,14.1
2023-04-28T13:05:48.489Z,14.5
2023-04-28T13:25:50.436Z,14.8
2023-04-28T13:35:51.257Z,15.5
2023-04-28T13:45:51.336Z,15.6
2023-04-28T14:05:53.116Z,15.6
2023-04-28T14:25:55.700Z,15.8
2023-04-28T14:35:55.540Z,16.1
2023-04-28T14:45:56.026Z,16.3
2023-04-28T15:05:56.880Z,16.1
2023-04-28T15:15:57.611Z,16.1
2023-04-28T15:25:58.454Z,15.9
2023-04-28T15:35:58.900Z,15.7
2023-04-28T15:45:59.610Z,15.5
2023-04-28T15:56:00.147Z,15.2
2023-04-28T16:06:01.190Z,14.9
2023-04-28T16:16:01.831Z,14.9
2023-04-28T16:26:02.238Z,15
2023-04-28T16:36:02.964Z,15.1
2023-04-28T16:46:03.892Z,15.2
2023-04-28T16:56:04.381Z,15.1
2023-04-28T17:16:05.765Z,14.8
2023-04-28T17:26:06.240Z,14.3
2023-04-28T17:56:08.961Z,13.9
2023-04-28T18:06:09.117Z,13.7
2023-04-28T18:16:09.838Z,13.5
2023-04-28T18:26:10.353Z,13.4
2023-04-28T18:56:11.870Z,13.3
2023-04-28T19:06:12.643Z,13.4
2023-04-28T19:16:12.842Z,13.3
2023-04-28T19:46:15.284Z,13.2
2023-04-28T19:56:16.194Z,13
2023-04-28T20:06:16.325Z,12.9
2023-04-28T20:46:18.339Z,12.8
2023-04-28T21:26:20.285Z,12.7
2023-04-28T21:36:20.750Z,12.6
2023-04-28T21:46:21.556Z,12.5
2023-04-28T22:16:22.753Z,12.3
2023-04-28T22:36:23.435Z,12.1
2023-04-28T22:56:24.182Z,11.6
2023-04-28T23:06:24.990Z,11.6
2023-04-28T23:16:25.600Z,11.5
2023-04-28T23:26:25.813Z,11.5
2023-04-28T23:36:26.305Z,11.4
2023-04-28T23:46:27.388Z,11.3
2023-04-28T23:56:28.482Z,11.1
